Time;durP1;ratioP1;P1;durP2;ratioP2;P2;SDS_P1;SDS_P2;PMS_P1;PMS_P2;Temp;Humidity;BMP_temperature;BMP_pressure;BME280_temperature;BME280_humidity;BME280_pressure;Samples;Min_cycle;Max_cycle;Signal;HPM_P1;HPM_P2
2024/01/02 00:01:57;;;;;;;15.60;4.27;;;;;;;;;;5072859;28;20184;-53
2024/01/02 00:04:24;;;;;;;12.33;4.20;;;;;;;;;;5072021;28;20195;-55
2024/01/02 00:06:50;;;;;;;17.57;4.80;;;;;;;;;;5072015;28;20174;-53
2024/01/02 00:09:17;;;;;;;14.70;3.80;;;;;;;;;;5074811;28;20207;-54
2024/01/02 00:11:43;;;;;;;13.83;4.03;;;;;;;;;;5077814;28;20225;-51
2024/01/02 00:14:10;;;;;;;11.50;3.50;;;;;;;;;;5075348;28;20206;-49
2024/01/02 00:16:37;;;;;;;14.77;4.13;;;;;;;;;;5075907;28;20219;-52
2024/01/02 00:19:04;;;;;;;14.37;4.73;;;;;;;;;;5076520;28;20427;-54
2024/01/02 00:21:29;;;;;;;16.97;4.70;;;;;;;;;;5076081;28;20173;-54
2024/01/02 00:23:57;;;;;;;10.47;3.53;;;;;;;;;;5075630;28;20242;-51
2024/01/02 00:26:23;;;;;;;12.10;3.87;;;;;;;;;;5076861;28;20564;-51
2024/01/02 00:28:49;;;;;;;20.17;4.83;;;;;;;;;;5077069;28;20277;-51
2024/01/02 00:31:15;;;;;;;20.97;5.10;;;;;;;;;;5076933;28;20173;-51
2024/01/02 00:33:42;;;;;;;19.73;4.77;;;;;;;;;;5077942;28;20157;-51
2024/01/02 00:36:12;;;;;;;18.63;4.20;;;;;;;;;;5077174;28;20173;-51
2024/01/02 00:38:38;;;;;;;12.43;3.97;;;;;;;;;;5077067;28;20172;-49
2024/01/02 00:41:05;;;;;;;10.07;4.07;;;;;;;;;;5076920;28;20654;-52
2024/01/02 00:43:31;;;;;;;13.27;4.17;;;;;;;;;;5076374;28;20172;-48
2024/01/02 00:45:59;;;;;;;8.77;3.40;;;;;;;;;;5076192;28;20181;-51
2024/01/02 00:48:25;;;;;;;17.17;4.23;;;;;;;;;;5077754;28;20627;-53
2024/01/02 00:50:51;;;;;;;10.50;3.63;;;;;;;;;;5076873;28;20176;-53
2024/01/02 00:53:18;;;;;;;11.67;3.87;;;;;;;;;;5076990;28;20259;-50
2024/01/02 00:55:44;;;;;;;13.20;3.70;;;;;;;;;;5077528;28;20272;-52
2024/01/02 00:58:10;;;;;;;14.27;3.37;;;;;;;;;;5077243;28;20323;-54
2024/01/02 01:00:36;;;;;;;13.60;4.53;;;;;;;;;;5077096;28;20200;-49
2024/01/02 01:03:02;;;;;;;19.87;3.60;;;;;;;;;;5077205;28;20804;-57
2024/01/02 01:05:28;;;;;;;23.20;5.30;;;;;;;;;;5076158;28;20169;-55
2024/01/02 01:07:54;;;;;;;13.73;3.93;;;;;;;;;;5077559;28;20177;-54
2024/01/02 01:10:20;;;;;;;7.60;4.13;;;;;;;;;;5076729;28;20185;-54
2024/01/02 01:12:46;;;;;;;9.80;3.13;;;;;;;;;;5076764;28;20177;-49
2024/01/02 01:15:12;;;;;;;11.90;3.63;;;;;;;;;;5076002;28;20187;-52
2024/01/02 01:17:39;;;;;;;13.43;4.17;;;;;;;;;;5075450;28;20177;-49
2024/01/02 01:20:06;;;;;;;15.13;4.90;;;;;;;;;;5074884;28;20193;-50
2024/01/02 01:22:32;;;;;;;14.47;4.20;;;;;;;;;;5076036;28;20181;-54
2024/01/02 01:24:58;;;;;;;17.17;4.73;;;;;;;;;;5076152;28;20173;-50
2024/01/02 01:27:24;;;;;;;10.33;3.90;;;;;;;;;;5074797;28;20264;-53
2024/01/02 01:29:50;;;;;;;13.63;4.10;;;;;;;;;;5076020;28;20263;-53
2024/01/02 01:32:16;;;;;;;10.77;4.20;;;;;;;;;;5076717;28;20279;-50
2024/01/02 01:34:42;;;;;;;8.17;3.70;;;;;;;;;;5073819;28;20180;-52
2024/01/02 01:37:08;;;;;;;14.60;4.23;;;;;;;;;;5074266;28;20440;-54
2024/01/02 01:39:34;;;;;;;11.13;3.20;;;;;;;;;;5071920;28;20495;-49
2024/01/02 01:42:00;;;;;;;15.93;3.93;;;;;;;;;;5072351;28;20557;-48
2024/01/02 01:44:26;;;;;;;11.80;4.40;;;;;;;;;;5072261;28;20243;-47
2024/01/02 01:46:52;;;;;;;7.33;3.20;;;;;;;;;;5072165;28;20192;-51
2024/01/02 01:49:18;;;;;;;11.27;3.50;;;;;;;;;;5071556;28;20239;-50
2024/01/02 01:51:44;;;;;;;16.43;4.10;;;;;;;;;;5072122;28;20169;-54
2024/01/02 01:54:14;;;;;;;16.93;3.90;;;;;;;;;;5072357;28;20295;-52
2024/01/02 01:56:42;;;;;;;9.93;3.70;;;;;;;;;;5072869;28;20545;-50
2024/01/02 01:59:08;;;;;;;14.43;3.30;;;;;;;;;;5072457;28;20228;-50
2024/01/02 02:01:35;;;;;;;10.93;4.23;;;;;;;;;;5071863;28;20181;-50
2024/01/02 02:04:01;;;;;;;18.70;3.67;;;;;;;;;;5074608;28;20275;-53
2024/01/02 02:06:28;;;;;;;16.77;3.80;;;;;;;;;;5076540;28;20160;-51
2024/01/02 02:08:54;;;;;;;10.17;3.80;;;;;;;;;;5069653;28;20234;-49
2024/01/02 02:11:21;;;;;;;14.23;3.90;;;;;;;;;;5070131;28;20180;-54
2024/01/02 02:13:50;;;;;;;7.27;3.40;;;;;;;;;;5071569;28;20201;-50
2024/01/02 02:16:16;;;;;;;15.53;4.20;;;;;;;;;;5070964;28;20346;-51
2024/01/02 02:18:42;;;;;;;12.80;4.00;;;;;;;;;;5071025;28;20198;-52
2024/01/02 02:21:08;;;;;;;15.33;4.13;;;;;;;;;;5071446;28;20511;-53
2024/01/02 02:23:34;;;;;;;12.83;3.97;;;;;;;;;;5073150;28;20168;-49
2024/01/02 02:26:00;;;;;;;13.17;4.03;;;;;;;;;;5072264;28;20183;-49
2024/01/02 02:28:26;;;;;;;16.60;4.10;;;;;;;;;;5071986;28;20334;-48
2024/01/02 02:30:52;;;;;;;9.50;3.20;;;;;;;;;;5070877;28;20368;-47
2024/01/02 02:33:18;;;;;;;12.07;3.80;;;;;;;;;;5069876;28;20173;-53
2024/01/02 02:35:44;;;;;;;9.53;4.13;;;;;;;;;;5071471;28;20585;-51
2024/01/02 02:38:10;;;;;;;13.77;3.87;;;;;;;;;;5070608;28;20576;-54
2024/01/02 02:40:37;;;;;;;19.27;4.40;;;;;;;;;;5068972;28;20505;-54
2024/01/02 02:43:04;;;;;;;12.23;3.30;;;;;;;;;;5069599;28;20744;-49
2024/01/02 02:45:32;;;;;;;15.23;3.50;;;;;;;;;;5070088;28;20169;-51
2024/01/02 02:47:58;;;;;;;11.23;3.60;;;;;;;;;;5072694;28;20192;-52
2024/01/02 02:50:24;;;;;;;12.50;3.87;;;;;;;;;;5071718;28;20293;-53
2024/01/02 02:52:50;;;;;;;15.27;3.30;;;;;;;;;;5070294;28;20560;-50
2024/01/02 02:55:16;;;;;;;9.37;3.73;;;;;;;;;;5070863;28;20200;-51
2024/01/02 02:57:42;;;;;;;12.97;4.47;;;;;;;;;;5069289;28;20387;-52
2024/01/02 03:00:10;;;;;;;20.47;4.73;;;;;;;;;;5069471;28;20268;-52
2024/01/02 03:02:36;;;;;;;12.80;4.27;;;;;;;;;;5070425;28;20252;-51
2024/01/02 03:05:03;;;;;;;15.17;4.17;;;;;;;;;;5068441;28;20211;-52
2024/01/02 03:07:29;;;;;;;8.57;4.07;;;;;;;;;;5070825;28;20165;-53
2024/01/02 03:09:55;;;;;;;16.40;4.93;;;;;;;;;;5069219;28;20190;-53
2024/01/02 03:12:21;;;;;;;11.17;3.77;;;;;;;;;;5070729;28;20186;-53
2024/01/02 03:14:47;;;;;;;15.93;4.27;;;;;;;;;;5071118;28;20287;-53
2024/01/02 03:17:13;;;;;;;15.77;4.23;;;;;;;;;;5070630;28;20179;-50
2024/01/02 03:19:39;;;;;;;11.23;3.70;;;;;;;;;;5070460;28;20467;-53
2024/01/02 03:22:06;;;;;;;15.40;4.27;;;;;;;;;;5070378;28;20211;-52
2024/01/02 03:24:32;;;;;;;13.63;5.07;;;;;;;;;;5071117;28;20184;-53
2024/01/02 03:26:58;;;;;;;15.83;4.67;;;;;;;;;;5071229;28;20203;-52
2024/01/02 03:29:26;;;;;;;18.50;3.90;;;;;;;;;;5071599;28;20607;-49
2024/01/02 03:31:52;;;;;;;9.10;3.93;;;;;;;;;;5072022;28;20549;-50
2024/01/02 03:34:18;;;;;;;9.63;3.63;;;;;;;;;;5068976;28;20231;-50
2024/01/02 03:36:45;;;;;;;15.07;3.73;;;;;;;;;;5068356;28;20172;-48
2024/01/02 03:39:11;;;;;;;11.43;3.60;;;;;;;;;;5068857;28;20237;-54
2024/01/02 03:41:37;;;;;;;11.90;3.93;;;;;;;;;;5070293;28;20224;-52
2024/01/02 03:44:02;;;;;;;11.67;3.60;;;;;;;;;;5072108;28;20541;-48
2024/01/02 03:46:28;;;;;;;14.10;4.00;;;;;;;;;;5074887;28;20176;-50
2024/01/02 03:48:54;;;;;;;13.53;4.00;;;;;;;;;;5076428;28;20241;-47
2024/01/02 03:51:20;;;;;;;16.03;3.57;;;;;;;;;;5074975;28;20422;-52
2024/01/02 03:53:46;;;;;;;13.37;3.93;;;;;;;;;;5074659;28;20183;-54
2024/01/02 03:56:15;;;;;;;13.40;3.90;;;;;;;;;;5073306;28;20232;-52
2024/01/02 03:58:43;;;;;;;17.23;4.73;;;;;;;;;;5072656;28;20327;-51
2024/01/02 04:01:09;;;;;;;13.70;3.60;;;;;;;;;;5072690;28;20239;-49
2024/01/02 04:03:35;;;;;;;11.83;3.23;;;;;;;;;;5073274;28;20165;-52
2024/01/02 04:06:01;;;;;;;8.90;3.50;;;;;;;;;;5077626;28;20169;-52
2024/01/02 04:08:27;;;;;;;11.43;4.50;;;;;;;;;;5070697;28;20265;-55
2024/01/02 04:10:53;;;;;;;16.40;3.57;;;;;;;;;;5072527;28;20246;-50
2024/01/02 04:13:19;;;;;;;9.57;4.10;;;;;;;;;;5070101;28;20589;-48
2024/01/02 04:15:45;;;;;;;10.53;3.93;;;;;;;;;;5070858;28;20165;-55
2024/01/02 04:18:11;;;;;;;9.17;3.97;;;;;;;;;;5069323;28;20173;-50
2024/01/02 04:20:37;;;;;;;11.13;3.73;;;;;;;;;;5070862;28;20219;-51
2024/01/02 04:23:03;;;;;;;13.80;3.73;;;;;;;;;;5073450;28;20262;-54
2024/01/02 04:25:30;;;;;;;13.87;3.33;;;;;;;;;;5073715;28;20173;-52
2024/01/02 04:27:56;;;;;;;11.23;4.13;;;;;;;;;;5073437;28;20173;-54
2024/01/02 04:30:23;;;;;;;11.43;3.20;;;;;;;;;;5074076;28;20394;-54
2024/01/02 04:32:49;;;;;;;12.23;3.37;;;;;;;;;;5075204;28;20187;-53
2024/01/02 04:35:15;;;;;;;14.93;4.00;;;;;;;;;;5075528;28;20382;-52
2024/01/02 04:37:41;;;;;;;10.30;2.87;;;;;;;;;;5075338;28;20351;-52
2024/01/02 04:40:10;;;;;;;18.27;4.57;;;;;;;;;;5073783;28;20208;-50
2024/01/02 04:42:36;;;;;;;10.00;3.63;;;;;;;;;;5074800;28;20177;-51
2024/01/02 04:45:03;;;;;;;7.50;3.00;;;;;;;;;;5072520;28;20524;-51
2024/01/02 04:47:29;;;;;;;8.93;3.20;;;;;;;;;;5074532;28;20160;-50
2024/01/02 04:49:55;;;;;;;11.77;3.30;;;;;;;;;;5073879;28;20377;-55
2024/01/02 04:52:21;;;;;;;16.30;3.57;;;;;;;;;;5073586;28;20172;-48
2024/01/02 04:54:48;;;;;;;12.03;3.77;;;;;;;;;;5071337;28;20180;-55
2024/01/02 04:57:14;;;;;;;11.37;3.27;;;;;;;;;;5071428;28;20181;-54
2024/01/02 04:59:40;;;;;;;14.23;3.37;;;;;;;;;;5072078;28;20211;-48
2024/01/02 05:02:06;;;;;;;9.97;2.93;;;;;;;;;;5071144;28;20453;-51
2024/01/02 05:04:33;;;;;;;11.57;3.10;;;;;;;;;;5073462;28;20171;-49
2024/01/02 05:06:59;;;;;;;16.73;3.37;;;;;;;;;;5072350;28;20264;-49
2024/01/02 05:09:27;;;;;;;16.70;4.30;;;;;;;;;;5072808;28;20255;-52
2024/01/02 05:11:53;;;;;;;9.93;3.53;;;;;;;;;;5071832;28;20251;-51
2024/01/02 05:14:19;;;;;;;13.47;3.20;;;;;;;;;;5069409;28;20176;-52
2024/01/02 05:16:45;;;;;;;12.77;3.83;;;;;;;;;;5071671;28;20165;-53
2024/01/02 05:19:11;;;;;;;8.37;3.40;;;;;;;;;;5068638;28;20161;-50
2024/01/02 05:21:37;;;;;;;7.93;2.57;;;;;;;;;;5068077;28;20211;-51
2024/01/02 05:24:04;;;;;;;10.60;3.47;;;;;;;;;;5068308;28;20275;-52
2024/01/02 05:26:30;;;;;;;9.43;2.47;;;;;;;;;;5068974;28;20339;-54
2024/01/02 05:28:56;;;;;;;8.30;2.77;;;;;;;;;;5068678;28;20172;-51
2024/01/02 05:31:22;;;;;;;11.43;2.50;;;;;;;;;;5067355;28;20172;-51
2024/01/02 05:33:48;;;;;;;8.67;3.00;;;;;;;;;;5069364;28;20227;-52
2024/01/02 05:36:14;;;;;;;5.90;2.60;;;;;;;;;;5070281;28;20575;-51
2024/01/02 05:38:40;;;;;;;9.10;2.40;;;;;;;;;;5072204;28;20176;-51
2024/01/02 05:41:07;;;;;;;6.73;2.43;;;;;;;;;;5070632;28;20272;-51
2024/01/02 05:43:33;;;;;;;10.13;3.13;;;;;;;;;;5071994;28;20165;-53
2024/01/02 05:46:01;;;;;;;13.20;2.73;;;;;;;;;;5071438;28;20723;-52
2024/01/02 05:48:27;;;;;;;9.33;2.40;;;;;;;;;;5070171;28;20624;-53
2024/01/02 05:50:53;;;;;;;11.93;3.20;;;;;;;;;;5070068;28;20168;-54
2024/01/02 05:53:20;;;;;;;10.77;2.07;;;;;;;;;;5069607;28;20169;-53
2024/01/02 05:55:46;;;;;;;7.83;2.53;;;;;;;;;;5069476;28;20274;-51
2024/01/02 05:58:12;;;;;;;7.77;2.30;;;;;;;;;;5068060;28;20261;-49
2024/01/02 06:00:38;;;;;;;13.10;3.17;;;;;;;;;;5069891;28;20311;-50
2024/01/02 06:03:04;;;;;;;11.77;3.17;;;;;;;;;;5069534;28;20183;-52
2024/01/02 06:05:30;;;;;;;14.17;3.20;;;;;;;;;;5069514;28;20176;-52
2024/01/02 06:07:56;;;;;;;9.30;2.80;;;;;;;;;;5068758;28;20548;-53
2024/01/02 06:10:23;;;;;;;7.97;2.67;;;;;;;;;;5070061;28;20172;-52
2024/01/02 06:12:49;;;;;;;8.63;2.70;;;;;;;;;;5070490;28;20181;-54
2024/01/02 06:15:16;;;;;;;10.70;2.90;;;;;;;;;;5070268;28;20176;-50
2024/01/02 06:17:42;;;;;;;9.27;2.47;;;;;;;;;;5069634;28;20677;-54
2024/01/02 06:20:10;;;;;;;10.57;2.80;;;;;;;;;;5069959;28;20498;-51
2024/01/02 06:22:37;;;;;;;9.67;2.53;;;;;;;;;;5070243;28;20200;-50
2024/01/02 06:25:08;;;;;;;9.80;3.13;;;;;;;;;;5068245;28;20400;-51
2024/01/02 06:27:35;;;;;;;8.90;3.00;;;;;;;;;;5067466;28;20176;-54
2024/01/02 06:30:02;;;;;;;9.17;2.57;;;;;;;;;;5067622;28;20577;-51
2024/01/02 06:32:28;;;;;;;12.20;3.30;;;;;;;;;;5068241;28;20332;-49
2024/01/02 06:34:54;;;;;;;10.63;2.63;;;;;;;;;;5066956;28;20177;-49
2024/01/02 06:37:20;;;;;;;9.37;2.30;;;;;;;;;;5070788;28;20267;-50
2024/01/02 06:39:46;;;;;;;14.43;3.67;;;;;;;;;;5068860;28;20204;-52
2024/01/02 06:42:12;;;;;;;7.83;2.63;;;;;;;;;;5070886;28;20580;-51
2024/01/02 06:44:38;;;;;;;9.90;2.47;;;;;;;;;;5069933;28;20164;-52
2024/01/02 06:47:04;;;;;;;8.67;2.67;;;;;;;;;;5069008;28;20179;-50
2024/01/02 06:49:30;;;;;;;9.73;2.47;;;;;;;;;;5070248;28;20169;-51
2024/01/02 06:51:56;;;;;;;9.90;2.80;;;;;;;;;;5069401;28;20386;-48
2024/01/02 06:54:22;;;;;;;11.00;2.60;;;;;;;;;;5070158;28;20428;-53
2024/01/02 06:56:48;;;;;;;8.67;2.47;;;;;;;;;;5067669;28;20172;-50
2024/01/02 06:59:14;;;;;;;10.57;2.60;;;;;;;;;;5066338;28;20539;-53
2024/01/02 07:01:40;;;;;;;9.00;2.77;;;;;;;;;;5066759;28;20557;-52
2024/01/02 07:04:06;;;;;;;10.17;2.33;;;;;;;;;;5065915;28;20226;-52
2024/01/02 07:06:32;;;;;;;13.50;1.83;;;;;;;;;;5065922;28;20234;-53
2024/01/02 07:08:58;;;;;;;12.37;2.50;;;;;;;;;;5065166;28;20176;-51
2024/01/02 07:11:24;;;;;;;12.70;2.80;;;;;;;;;;5066903;28;20262;-53
2024/01/02 07:13:50;;;;;;;10.70;2.63;;;;;;;;;;5068158;28;20181;-52
2024/01/02 07:16:16;;;;;;;9.07;2.50;;;;;;;;;;5066729;28;20173;-51
2024/01/02 07:18:42;;;;;;;9.73;2.83;;;;;;;;;;5065393;28;20169;-53
2024/01/02 07:21:08;;;;;;;6.87;3.30;;;;;;;;;;5066523;28;20223;-53
2024/01/02 07:23:34;;;;;;;11.07;3.10;;;;;;;;;;5066699;28;20172;-54
2024/01/02 07:26:00;;;;;;;14.20;3.30;;;;;;;;;;5067551;28;20241;-50
2024/01/02 07:28:26;;;;;;;9.17;2.83;;;;;;;;;;5067079;28;20169;-49
2024/01/02 07:30:52;;;;;;;13.17;2.83;;;;;;;;;;5067588;28;20175;-52
2024/01/02 07:33:19;;;;;;;11.27;2.60;;;;;;;;;;5068049;28;20165;-50
2024/01/02 07:35:45;;;;;;;12.57;2.57;;;;;;;;;;5067815;28;20210;-52
2024/01/02 07:38:11;;;;;;;8.23;2.77;;;;;;;;;;5068835;28;20221;-49
2024/01/02 07:40:37;;;;;;;5.20;2.13;;;;;;;;;;5066976;28;20303;-51
2024/01/02 07:43:04;;;;;;;9.33;2.30;;;;;;;;;;5067479;28;20271;-51
2024/01/02 07:45:30;;;;;;;17.37;3.03;;;;;;;;;;5068786;28;20404;-51
2024/01/02 07:47:56;;;;;;;9.27;2.93;;;;;;;;;;5068892;28;20275;-51
2024/01/02 07:50:22;;;;;;;8.40;2.30;;;;;;;;;;5068396;28;20323;-50
2024/01/02 07:52:48;;;;;;;18.90;3.03;;;;;;;;;;5068609;28;20212;-53
2024/01/02 07:55:14;;;;;;;8.80;2.10;;;;;;;;;;5067737;28;20173;-53
2024/01/02 07:57:41;;;;;;;7.43;1.93;;;;;;;;;;5067416;28;20227;-51
2024/01/02 08:00:07;;;;;;;6.87;2.33;;;;;;;;;;5067022;28;20200;-51
2024/01/02 08:02:33;;;;;;;10.53;2.40;;;;;;;;;;5067430;28;20373;-51
2024/01/02 08:04:59;;;;;;;4.87;1.43;;;;;;;;;;5066184;28;20446;-53
2024/01/02 08:07:25;;;;;;;11.43;2.63;;;;;;;;;;5064016;28;20195;-55
2024/01/02 08:09:51;;;;;;;8.33;2.63;;;;;;;;;;5065107;28;20181;-53
2024/01/02 08:12:17;;;;;;;12.00;2.33;;;;;;;;;;5065807;28;20203;-50
2024/01/02 08:14:43;;;;;;;10.20;2.50;;;;;;;;;;5066861;28;20204;-53
2024/01/02 08:17:09;;;;;;;5.27;2.53;;;;;;;;;;5067078;28;20200;-52
2024/01/02 08:19:35;;;;;;;7.97;2.17;;;;;;;;;;5065393;28;20173;-50
2024/01/02 08:22:02;;;;;;;6.67;2.90;;;;;;;;;;5065790;28;20518;-53
2024/01/02 08:24:28;;;;;;;5.07;3.10;;;;;;;;;;5065890;28;20173;-49
2024/01/02 08:26:54;;;;;;;4.43;1.93;;;;;;;;;;5064638;28;20183;-50
2024/01/02 08:29:20;;;;;;;9.00;2.40;;;;;;;;;;5064508;28;20541;-51
2024/01/02 08:31:46;;;;;;;4.40;2.33;;;;;;;;;;5067158;28;20164;-51
2024/01/02 08:34:13;;;;;;;8.73;2.30;;;;;;;;;;5066569;28;20477;-55
2024/01/02 08:36:39;;;;;;;10.70;2.37;;;;;;;;;;5064138;28;20396;-52
2024/01/02 08:39:05;;;;;;;9.80;2.33;;;;;;;;;;5064141;28;20172;-49
2024/01/02 08:41:31;;;;;;;9.97;2.27;;;;;;;;;;5066543;28;20215;-53
2024/01/02 08:43:57;;;;;;;7.60;2.57;;;;;;;;;;5066800;28;20169;-49
2024/01/02 08:46:23;;;;;;;12.50;3.27;;;;;;;;;;5067211;28;20169;-54
2024/01/02 08:48:49;;;;;;;9.13;3.13;;;;;;;;;;5068174;28;20381;-51
2024/01/02 08:51:15;;;;;;;8.70;3.10;;;;;;;;;;5069867;28;20181;-52
2024/01/02 08:53:41;;;;;;;4.27;1.77;;;;;;;;;;5068620;28;20177;-53
2024/01/02 08:56:08;;;;;;;8.23;2.80;;;;;;;;;;5068119;28;20179;-50
2024/01/02 08:58:35;;;;;;;11.63;2.13;;;;;;;;;;5067989;28;20229;-52
2024/01/02 09:01:01;;;;;;;17.87;3.13;;;;;;;;;;5067499;28;20291;-53
2024/01/02 09:03:30;;;;;;;14.13;3.00;;;;;;;;;;5067139;28;20272;-52
2024/01/02 09:05:56;;;;;;;11.97;2.37;;;;;;;;;;5065451;28;20179;-52
2024/01/02 09:08:22;;;;;;;19.47;3.60;;;;;;;;;;5064649;28;20200;-50
2024/01/02 09:10:48;;;;;;;9.37;2.90;;;;;;;;;;5065034;28;20220;-54
2024/01/02 09:13:14;;;;;;;6.37;2.17;;;;;;;;;;5067363;28;20176;-54
2024/01/02 09:15:40;;;;;;;8.13;2.33;;;;;;;;;;5073074;28;20204;-51
2024/01/02 09:18:06;;;;;;;7.27;2.57;;;;;;;;;;5072482;28;20266;-52
2024/01/02 09:20:32;;;;;;;9.13;2.07;;;;;;;;;;5073262;28;20240;-53
2024/01/02 09:22:58;;;;;;;7.83;2.97;;;;;;;;;;5072059;28;20162;-49
2024/01/02 09:25:26;;;;;;;10.30;3.00;;;;;;;;;;5070812;28;20179;-50
2024/01/02 09:27:55;;;;;;;8.87;2.40;;;;;;;;;;5065541;28;20475;-54
2024/01/02 09:30:23;;;;;;;11.27;1.93;;;;;;;;;;5066285;28;20234;-50
2024/01/02 09:32:49;;;;;;;6.20;3.20;;;;;;;;;;5065635;28;20396;-51
2024/01/02 09:35:15;;;;;;;5.30;2.43;;;;;;;;;;5066658;28;20196;-53
2024/01/02 09:37:41;;;;;;;11.23;4.43;;;;;;;;;;5068390;28;20203;-50
2024/01/02 09:40:18;;;;;;;13.20;6.03;;;;;;;;;;5064095;28;20461;-49
2024/01/02 09:42:55;;;;;;;9.83;4.37;;;;;;;;;;5062318;28;20180;-56
2024/01/02 09:45:32;;;;;;;7.47;4.13;;;;;;;;;;5062447;28;20705;-52
2024/01/02 09:48:06;;;;;;;5.40;2.70;;;;;;;;;;5061569;28;20552;-52
2024/01/02 09:50:34;;;;;;;17.47;3.80;;;;;;;;;;5062149;28;20180;-55
2024/01/02 09:53:16;;;;;;;7.60;2.80;;;;;;;;;;5061233;28;20242;-51
2024/01/02 09:55:53;;;;;;;10.60;2.13;;;;;;;;;;5060894;28;20176;-53
2024/01/02 09:58:23;;;;;;;6.60;2.17;;;;;;;;;;5061750;28;20302;-51
2024/01/02 10:01:15;;;;;;;18.70;2.60;;;;;;;;;;5063491;28;20204;-51
2024/01/02 10:03:47;;;;;;;8.00;2.20;;;;;;;;;;5060768;28;20212;-54
2024/01/02 10:06:27;;;;;;;14.40;2.30;;;;;;;;;;5063918;28;20333;-52
2024/01/02 10:09:05;;;;;;;5.87;2.13;;;;;;;;;;5065744;28;20422;-52
2024/01/02 10:11:44;;;;;;;8.53;2.07;;;;;;;;;;5064956;28;20176;-51
2024/01/02 10:14:22;;;;;;;23.63;3.60;;;;;;;;;;5066134;28;20355;-51
2024/01/02 10:16:52;;;;;;;10.13;2.93;;;;;;;;;;5066457;28;20165;-54
2024/01/02 10:19:22;;;;;;;10.80;2.10;;;;;;;;;;5064968;28;20346;-53
2024/01/02 10:22:04;;;;;;;34.57;3.53;;;;;;;;;;5064096;28;20470;-50
2024/01/02 10:24:51;;;;;;;7.17;1.93;;;;;;;;;;5065652;28;20169;-54
2024/01/02 10:27:22;;;;;;;5.10;1.80;;;;;;;;;;5067469;28;20184;-51
2024/01/02 10:29:48;;;;;;;28.87;3.67;;;;;;;;;;5065441;28;20268;-48
2024/01/02 10:32:18;;;;;;;19.70;2.63;;;;;;;;;;5064793;28;20271;-52
2024/01/02 10:34:54;;;;;;;8.97;2.40;;;;;;;;;;5070447;28;20176;-50
2024/01/02 10:37:25;;;;;;;23.27;2.83;;;;;;;;;;5069752;28;20173;-49
2024/01/02 10:40:01;;;;;;;11.50;2.40;;;;;;;;;;5067290;28;20187;-54
2024/01/02 10:42:27;;;;;;;11.40;2.20;;;;;;;;;;5068631;28;20419;-53
2024/01/02 10:45:06;;;;;;;7.27;2.37;;;;;;;;;;5071503;28;20625;-53
2024/01/02 10:47:32;;;;;;;6.87;1.80;;;;;;;;;;5071385;28;20173;-51
2024/01/02 10:50:00;;;;;;;4.67;1.70;;;;;;;;;;5072380;28;20176;-51
2024/01/02 10:52:29;;;;;;;13.77;2.93;;;;;;;;;;5069135;28;20215;-54
2024/01/02 10:55:04;;;;;;;17.50;4.70;;;;;;;;;;5068726;28;20173;-51
2024/01/02 10:57:39;;;;;;;7.03;3.07;;;;;;;;;;5069679;28;20187;-54
2024/01/02 11:00:10;;;;;;;4.97;2.60;;;;;;;;;;5068628;28;20200;-54
2024/01/02 11:02:51;;;;;;;5.03;1.67;;;;;;;;;;5070848;28;20168;-54
2024/01/02 11:05:30;;;;;;;4.00;1.57;;;;;;;;;;5070203;28;20165;-54
2024/01/02 11:08:17;;;;;;;4.87;2.23;;;;;;;;;;5068892;28;20630;-53
2024/01/02 11:10:53;;;;;;;3.93;1.97;;;;;;;;;;5070875;28;20780;-51
2024/01/02 11:13:20;;;;;;;6.37;2.47;;;;;;;;;;5071544;28;20246;-51
2024/01/02 11:15:46;;;;;;;3.87;1.93;;;;;;;;;;5068542;28;20188;-55
2024/01/02 11:18:14;;;;;;;10.97;2.73;;;;;;;;;;5064325;28;20181;-51
2024/01/02 11:20:46;;;;;;;6.03;1.80;;;;;;;;;;5064629;28;20200;-49
2024/01/02 11:23:15;;;;;;;2.47;1.90;;;;;;;;;;5068908;28;20172;-55
2024/01/02 11:26:08;;;;;;;6.50;2.50;;;;;;;;;;5067822;28;20212;-54
2024/01/02 11:28:35;;;;;;;4.63;2.37;;;;;;;;;;5045398;28;20184;-50
2024/01/02 11:31:02;;;;;;;5.57;3.67;;;;;;;;;;5067750;28;20177;-54
2024/01/02 11:33:47;;;;;;;7.10;3.87;;;;;;;;;;5068975;28;20210;-52
2024/01/02 11:36:13;;;;;;;4.50;3.03;;;;;;;;;;5064930;28;20176;-52
2024/01/02 11:38:47;;;;;;;6.83;4.20;;;;;;;;;;5062875;28;20504;-50
2024/01/02 11:41:20;;;;;;;6.30;4.07;;;;;;;;;;5063275;28;20215;-50
2024/01/02 11:43:54;;;;;;;6.30;3.60;;;;;;;;;;5065011;28;20441;-48
2024/01/02 11:46:24;;;;;;;7.70;3.20;;;;;;;;;;5063517;28;20168;-50
2024/01/02 11:49:01;;;;;;;9.37;3.43;;;;;;;;;;5062663;28;20434;-54
2024/01/02 11:51:28;;;;;;;5.10;2.83;;;;;;;;;;5063065;28;20176;-48
2024/01/02 11:54:13;;;;;;;10.37;2.40;;;;;;;;;;5059109;28;20203;-52
2024/01/02 11:56:39;;;;;;;10.30;2.50;;;;;;;;;;5058504;28;20180;-50
2024/01/02 11:59:21;;;;;;;6.23;2.37;;;;;;;;;;5058165;28;20332;-50
2024/01/02 12:01:50;;;;;;;7.67;2.70;;;;;;;;;;5061825;28;20205;-48
2024/01/02 12:04:17;;;;;;;11.87;3.60;;;;;;;;;;5060223;28;20183;-54
2024/01/02 12:06:52;;;;;;;10.63;3.87;;;;;;;;;;5064128;28;20267;-52
2024/01/02 12:09:19;;;;;;;13.00;4.03;;;;;;;;;;5064921;28;20169;-52
2024/01/02 12:11:53;;;;;;;8.53;2.97;;;;;;;;;;5063876;28;20173;-58
2024/01/02 12:14:39;;;;;;;14.83;2.07;;;;;;;;;;5066254;28;20206;-57
2024/01/02 12:17:06;;;;;;;50.63;3.93;;;;;;;;;;5064129;28;20295;-55
2024/01/02 12:19:34;;;;;;;8.73;1.77;;;;;;;;;;5067595;28;20529;-58
2024/01/02 12:22:01;;;;;;;29.13;3.50;;;;;;;;;;5070593;28;20289;-55
2024/01/02 12:24:29;;;;;;;31.67;4.00;;;;;;;;;;5069965;28;20536;-54
2024/01/02 12:26:56;;;;;;;15.90;3.43;;;;;;;;;;5069980;28;20198;-52
2024/01/02 12:29:48;;;;;;;23.13;4.33;;;;;;;;;;5071766;28;20842;-49
2024/01/02 12:32:17;;;;;;;9.53;1.30;;;;;;;;;;5071236;28;20181;-53
2024/01/02 12:34:54;;;;;;;5.23;1.00;;;;;;;;;;5070305;28;20169;-52
2024/01/02 12:37:23;;;;;;;1.43;1.10;;;;;;;;;;5070377;28;20177;-50
2024/01/02 12:39:53;;;;;;;4.27;1.63;;;;;;;;;;5069557;28;20200;-52
2024/01/02 12:42:25;;;;;;;13.03;2.60;;;;;;;;;;5064040;28;20445;-52
2024/01/02 12:44:51;;;;;;;1.00;0.87;;;;;;;;;;5062611;28;20691;-52
2024/01/02 12:47:22;;;;;;;2.13;1.07;;;;;;;;;;5062552;28;20172;-55
2024/01/02 12:49:58;;;;;;;6.60;2.37;;;;;;;;;;5064192;28;20390;-54
2024/01/02 12:52:28;;;;;;;3.43;1.83;;;;;;;;;;5065281;28;20590;-55
2024/01/02 12:54:55;;;;;;;3.07;2.50;;;;;;;;;;5062223;28;20403;-53
2024/01/02 12:57:21;;;;;;;4.83;3.77;;;;;;;;;;5064146;28;20393;-47
2024/01/02 12:59:47;;;;;;;6.07;3.47;;;;;;;;;;5062109;28;20557;-53
2024/01/02 13:02:13;;;;;;;3.80;3.13;;;;;;;;;;5062884;28;20542;-51
2024/01/02 13:04:39;;;;;;;3.87;2.63;;;;;;;;;;5060333;28;20290;-53
2024/01/02 13:07:07;;;;;;;5.07;3.27;;;;;;;;;;5061350;28;20235;-51
2024/01/02 13:09:33;;;;;;;4.80;2.90;;;;;;;;;;5058290;28;20408;-53
2024/01/02 13:12:01;;;;;;;3.13;2.27;;;;;;;;;;5060210;28;20446;-51
2024/01/02 13:14:27;;;;;;;2.20;1.20;;;;;;;;;;5059285;28;20195;-55
2024/01/02 13:16:53;;;;;;;3.87;1.73;;;;;;;;;;5058706;28;20357;-52
2024/01/02 13:19:21;;;;;;;1.43;1.17;;;;;;;;;;5059239;28;20549;-52
2024/01/02 13:21:50;;;;;;;4.97;1.53;;;;;;;;;;5060575;28;20326;-55
2024/01/02 13:24:16;;;;;;;10.23;1.70;;;;;;;;;;5062488;28;20179;-52
2024/01/02 13:26:44;;;;;;;4.60;1.83;;;;;;;;;;5060256;28;20358;-55
2024/01/02 13:29:11;;;;;;;14.13;2.77;;;;;;;;;;5061203;28;20167;-51
2024/01/02 13:31:38;;;;;;;25.80;2.80;;;;;;;;;;5061450;28;20320;-51
2024/01/02 13:34:04;;;;;;;3.77;1.70;;;;;;;;;;5060848;28;20278;-52
2024/01/02 13:36:30;;;;;;;6.13;1.40;;;;;;;;;;5062428;28;20361;-53
2024/01/02 13:38:57;;;;;;;6.90;1.70;;;;;;;;;;5061896;28;20176;-54
2024/01/02 13:41:24;;;;;;;3.43;1.53;;;;;;;;;;5064403;28;20200;-50
2024/01/02 13:43:50;;;;;;;6.07;1.97;;;;;;;;;;5064465;28;20165;-53
2024/01/02 13:46:24;;;;;;;8.07;1.67;;;;;;;;;;5064544;28;20327;-54
2024/01/02 13:48:51;;;;;;;2.60;0.97;;;;;;;;;;5064465;28;20547;-54
2024/01/02 13:51:17;;;;;;;7.03;1.60;;;;;;;;;;5065493;28;20252;-55
2024/01/02 13:54:00;;;;;;;10.93;1.73;;;;;;;;;;5063310;28;20288;-52
2024/01/02 13:56:27;;;;;;;3.20;1.37;;;;;;;;;;5064665;28;20576;-48
2024/01/02 13:58:57;;;;;;;6.30;1.60;;;;;;;;;;5064498;28;20235;-53
2024/01/02 14:01:33;;;;;;;6.13;1.57;;;;;;;;;;5064054;28;20580;-52
2024/01/02 14:04:00;;;;;;;7.90;1.20;;;;;;;;;;5062980;28;20184;-50
2024/01/02 14:06:26;;;;;;;2.47;1.33;;;;;;;;;;5062408;28;20172;-51
2024/01/02 14:09:13;;;;;;;6.37;1.70;;;;;;;;;;5062024;28;20169;-51
2024/01/02 14:11:56;;;;;;;7.03;1.93;;;;;;;;;;5060743;28;20185;-54
2024/01/02 14:14:29;;;;;;;11.30;1.47;;;;;;;;;;5060659;28;20180;-53
2024/01/02 14:17:00;;;;;;;7.57;1.50;;;;;;;;;;5060989;28;20324;-50
2024/01/02 14:19:27;;;;;;;17.93;1.57;;;;;;;;;;5059402;28;20275;-51
2024/01/02 14:21:56;;;;;;;3.83;1.57;;;;;;;;;;5061710;28;20647;-53
2024/01/02 14:24:28;;;;;;;8.60;1.60;;;;;;;;;;5060163;28;20233;-50
2024/01/02 14:27:06;;;;;;;7.93;2.53;;;;;;;;;;5063175;28;20393;-51
2024/01/02 14:29:38;;;;;;;2.30;1.33;;;;;;;;;;5061028;28;20253;-53
2024/01/02 14:32:13;;;;;;;5.60;2.07;;;;;;;;;;5061434;28;20176;-52
2024/01/02 14:34:54;;;;;;;6.03;3.20;;;;;;;;;;5060781;28;20172;-52
2024/01/02 14:37:20;;;;;;;6.23;4.13;;;;;;;;;;5058721;28;20169;-53
2024/01/02 14:40:22;;;;;;;10.33;5.87;;;;;;;;;;5058514;28;20466;-54
2024/01/02 14:42:48;;;;;;;6.70;4.23;;;;;;;;;;5002501;28;20538;-55